KAWM

West Memphis Municipal Airport

West Memphis, Arkansas, USA
METAR KAWM 180653Z AUTO 05006KT 10SM CLR 14/08 A3040 RMK AO2 SLP292 T01390078 $
Observed Flight Rules
Oct-18 @ 06:53 UTC (9 hours ago) Visual Flight Rules
Wind Visibility Clouds
50° at 6 knots 10 miles
  • Clear skies
Temperatures Readings
Current 14°C / 57°F
Dewpoint 8°C / 46°F
Humidity 67%
Altimeter 30.4" Hg
Pressure 1029.2 hPa
Elevation 65
METAR KAWM 180653Z AUTO 05006KT 10SM CLR 14/08 A3040 RMK AO2 SLP292 T01390078 $
Observed Flight Rules
Oct-18 @ 06:53 UTC
(9 hours ago)
VFR
Wind Visibility
50° at 6 knots 10 miles
Clouds
  • Clear skies
Temperature Dewpoint
14°C / 57°F 8°C / 46°F
Humidity Altimeter Pressure
67% 30.4" Hg 1029.2 hPa